createdAt,value
2023-05-14T00:00:14.399Z,0.32
2023-05-14T00:02:16.028Z,0.40
2023-05-14T00:04:19.610Z,0.28
2023-05-14T00:06:21.533Z,0.30
2023-05-14T00:08:23.087Z,0.30
2023-05-14T00:10:24.819Z,0.30
2023-05-14T00:12:27.077Z,0.30
2023-05-14T00:14:28.760Z,0.30
2023-05-14T00:16:30.406Z,0.28
2023-05-14T00:18:32.073Z,0.30
2023-05-14T00:20:33.598Z,0.40
2023-05-14T00:22:35.079Z,0.40
2023-05-14T00:24:36.792Z,0.40
2023-05-14T00:26:38.280Z,0.30
2023-05-14T00:28:39.652Z,0.30
2023-05-14T00:30:41.134Z,0.40
2023-05-14T00:32:42.578Z,0.38
2023-05-14T00:34:44.217Z,0.45
2023-05-14T00:36:45.692Z,0.30
2023-05-14T00:38:47.377Z,0.30
2023-05-14T00:40:51.821Z,0.43
2023-05-14T00:42:53.808Z,0.30
2023-05-14T00:44:55.505Z,0.30
2023-05-14T00:46:57.045Z,0.40
2023-05-14T00:48:58.865Z,0.40
2023-05-14T00:51:00.447Z,0.40
2023-05-14T00:53:01.881Z,0.40
2023-05-14T00:55:04.233Z,0.28
2023-05-14T00:57:06.184Z,0.40
2023-05-14T00:59:07.649Z,0.30
2023-05-14T01:01:09.168Z,0.30
2023-05-14T01:03:10.895Z,0.30
2023-05-14T01:05:12.505Z,0.40
2023-05-14T01:07:16.745Z,0.40
2023-05-14T01:09:26.471Z,0.30
2023-05-14T01:11:36.640Z,0.38
2023-05-14T01:13:56.093Z,0.40
2023-05-14T01:15:58.288Z,0.35
2023-05-14T01:18:03.488Z,0.30
2023-05-14T01:20:05.252Z,0.40
2023-05-14T01:22:10.226Z,0.35
2023-05-14T01:24:11.716Z,0.30
2023-05-14T01:26:13.344Z,0.30
2023-05-14T01:28:18.952Z,0.30
2023-05-14T01:30:26.247Z,0.30
2023-05-14T01:32:28.295Z,0.40
2023-05-14T01:34:29.950Z,0.40
2023-05-14T01:36:31.818Z,0.30
2023-05-14T01:38:34.245Z,0.40
2023-05-14T01:40:36.877Z,0.38
2023-05-14T01:42:38.457Z,0.38
2023-05-14T01:44:39.852Z,0.30
2023-05-14T01:46:41.384Z,0.40
2023-05-14T01:48:42.961Z,0.30
2023-05-14T01:50:44.390Z,0.30
2023-05-14T01:52:45.903Z,0.43
2023-05-14T01:54:47.882Z,0.30
2023-05-14T01:56:49.320Z,0.40
2023-05-14T01:58:50.890Z,0.30
2023-05-14T02:00:52.390Z,0.40
2023-05-14T02:02:53.827Z,0.32
2023-05-14T02:04:55.357Z,0.40
2023-05-14T02:06:56.834Z,0.40
2023-05-14T02:08:58.239Z,0.50
2023-05-14T02:10:59.780Z,0.30
2023-05-14T02:13:03.321Z,0.30
2023-05-14T02:15:05.032Z,0.40
2023-05-14T02:17:06.472Z,0.40
2023-05-14T02:19:07.955Z,0.30
2023-05-14T02:21:09.578Z,0.40
2023-05-14T02:23:11.100Z,0.40
2023-05-14T02:25:12.476Z,0.40
2023-05-14T02:27:13.929Z,0.30
2023-05-14T02:29:15.375Z,0.40
2023-05-14T02:31:19.313Z,0.30
2023-05-14T02:33:21.013Z,0.30
2023-05-14T02:35:22.817Z,0.40
2023-05-14T02:37:24.257Z,0.30
2023-05-14T02:39:25.664Z,0.40
2023-05-14T02:41:27.369Z,0.50
2023-05-14T02:43:29.087Z,0.43
2023-05-14T02:45:30.465Z,0.35
2023-05-14T02:47:32.122Z,0.40
2023-05-14T02:49:33.692Z,0.40
2023-05-14T02:51:35.264Z,0.32
2023-05-14T02:53:36.693Z,0.40
2023-05-14T02:55:38.294Z,0.30
2023-05-14T02:57:39.734Z,0.40
2023-05-14T02:59:41.504Z,0.40
2023-05-14T03:01:43.202Z,0.43
2023-05-14T03:03:45.181Z,0.40
2023-05-14T03:05:47.086Z,0.43
2023-05-14T03:07:48.938Z,0.40
2023-05-14T03:09:50.295Z,0.50
2023-05-14T03:11:51.886Z,0.40
2023-05-14T03:13:53.273Z,0.40
2023-05-14T03:15:55.129Z,0.35
2023-05-14T03:17:56.768Z,0.40
2023-05-14T03:19:58.181Z,0.40
2023-05-14T03:21:59.660Z,0.40
2023-05-14T03:24:01.119Z,0.40
2023-05-14T03:26:02.590Z,0.38
2023-05-14T03:28:04.115Z,0.35
2023-05-14T03:30:06.241Z,0.40
2023-05-14T03:32:07.696Z,0.32
2023-05-14T03:34:09.233Z,0.47
2023-05-14T03:36:10.817Z,0.40
2023-05-14T03:38:12.233Z,0.40
2023-05-14T03:40:13.631Z,0.40
2023-05-14T03:42:15.296Z,0.30
2023-05-14T03:44:16.809Z,0.38
2023-05-14T03:46:18.261Z,0.40
2023-05-14T03:48:20.218Z,0.43
2023-05-14T03:50:22.007Z,0.50
2023-05-14T03:52:24.084Z,0.50
2023-05-14T03:54:26.309Z,0.40
2023-05-14T03:56:27.724Z,0.50
2023-05-14T03:58:29.317Z,0.38
2023-05-14T04:00:30.816Z,0.30
2023-05-14T04:02:32.344Z,0.45
2023-05-14T04:04:33.900Z,0.50
2023-05-14T04:06:35.947Z,0.40
2023-05-14T04:08:37.349Z,0.40
2023-05-14T04:10:38.747Z,0.47
2023-05-14T04:12:40.410Z,0.50
2023-05-14T04:14:41.898Z,0.52
2023-05-14T04:16:43.490Z,0.40
2023-05-14T04:18:45.001Z,0.50
2023-05-14T04:20:46.599Z,0.50
2023-05-14T04:22:48.054Z,0.50
2023-05-14T04:24:49.441Z,0.50
2023-05-14T04:26:50.918Z,0.40
2023-05-14T04:28:52.862Z,0.50
2023-05-14T04:30:54.339Z,0.40
2023-05-14T04:32:55.775Z,0.40
2023-05-14T04:34:57.284Z,0.30
2023-05-14T04:36:58.699Z,0.50
2023-05-14T04:39:00.482Z,0.40
2023-05-14T04:41:02.118Z,0.50
2023-05-14T04:43:03.525Z,0.50
2023-05-14T04:45:06.234Z,0.50
2023-05-14T04:47:07.780Z,0.40
2023-05-14T04:49:09.231Z,0.45
2023-05-14T04:51:10.990Z,0.40
2023-05-14T04:53:12.786Z,0.52
2023-05-14T04:55:14.431Z,0.40
2023-05-14T04:57:16.019Z,0.40
2023-05-14T04:59:17.505Z,0.43
2023-05-14T05:01:19.009Z,0.47
2023-05-14T05:03:20.754Z,0.38
2023-05-14T05:05:22.387Z,0.40
2023-05-14T05:07:23.843Z,0.40
2023-05-14T05:09:25.335Z,0.40
2023-05-14T05:11:26.808Z,0.45
2023-05-14T05:13:28.471Z,0.50
2023-05-14T05:15:29.930Z,0.40
2023-05-14T05:17:31.687Z,0.40
2023-05-14T05:19:43.136Z,0.35
2023-05-14T05:21:44.936Z,0.40
2023-05-14T05:23:46.370Z,0.40
2023-05-14T05:25:47.803Z,0.40
2023-05-14T05:27:49.330Z,0.40
2023-05-14T05:29:50.825Z,0.50
2023-05-14T05:31:52.564Z,0.45
2023-05-14T05:33:54.188Z,0.40
2023-05-14T05:35:55.626Z,0.40
2023-05-14T05:38:00.533Z,0.50
2023-05-14T05:40:04.319Z,0.50
2023-05-14T05:42:06.043Z,0.50
2023-05-14T05:44:07.613Z,0.45
2023-05-14T05:46:09.081Z,0.40
2023-05-14T05:48:10.556Z,0.30
2023-05-14T05:50:12.221Z,0.40
2023-05-14T05:52:13.791Z,0.50
2023-05-14T05:54:15.209Z,0.50
2023-05-14T05:56:16.671Z,0.50
2023-05-14T05:58:18.687Z,0.50
2023-05-14T06:00:20.611Z,0.40
2023-05-14T06:02:22.916Z,0.40
2023-05-14T06:04:24.621Z,0.40
2023-05-14T06:06:26.181Z,0.40
2023-05-14T06:08:27.564Z,0.50
2023-05-14T06:10:29.185Z,0.40
2023-05-14T06:12:30.856Z,0.50
2023-05-14T06:14:32.281Z,0.40
2023-05-14T06:16:33.812Z,0.50
2023-05-14T06:18:35.302Z,0.50
2023-05-14T06:20:36.893Z,0.50
2023-05-14T06:22:38.309Z,0.60
2023-05-14T06:24:39.695Z,0.50
2023-05-14T06:26:41.126Z,0.45
2023-05-14T06:28:42.518Z,0.40
2023-05-14T06:30:44.194Z,0.50
2023-05-14T06:32:45.616Z,0.40
2023-05-14T06:34:47.394Z,0.43
2023-05-14T06:36:49.142Z,0.40
2023-05-14T06:38:50.671Z,0.40
2023-05-14T06:40:55.185Z,0.50
2023-05-14T06:42:56.597Z,0.60
2023-05-14T06:44:58.011Z,0.55
2023-05-14T06:46:59.496Z,0.50
2023-05-14T06:49:01.090Z,0.60
2023-05-14T06:51:03.431Z,0.40
2023-05-14T06:53:04.796Z,0.50
2023-05-14T06:55:06.453Z,0.43
2023-05-14T06:57:07.804Z,0.45
2023-05-14T06:59:09.384Z,0.60
2023-05-14T07:01:11.040Z,0.50
2023-05-14T07:03:12.603Z,0.60
2023-05-14T07:05:14.027Z,0.52
2023-05-14T07:07:18.265Z,0.47
2023-05-14T07:09:19.709Z,0.50
2023-05-14T07:11:23.138Z,0.40
2023-05-14T07:13:26.330Z,0.43
2023-05-14T07:15:29.092Z,0.57
2023-05-14T07:17:30.856Z,0.40
2023-05-14T07:19:32.378Z,0.50
2023-05-14T07:21:34.808Z,0.50
2023-05-14T07:23:37.703Z,0.50
2023-05-14T07:25:39.105Z,0.52
2023-05-14T07:27:40.536Z,0.50
2023-05-14T07:29:41.897Z,0.40
2023-05-14T07:31:43.706Z,0.40
2023-05-14T07:33:45.408Z,0.50
2023-05-14T07:35:46.777Z,0.43
2023-05-14T07:37:48.369Z,0.50
2023-05-14T07:39:49.732Z,0.70
2023-05-14T07:41:51.367Z,0.50
2023-05-14T07:43:52.783Z,0.65
2023-05-14T07:45:54.240Z,0.50
2023-05-14T07:47:56.199Z,0.60
2023-05-14T07:49:57.941Z,0.50
2023-05-14T07:52:02.406Z,0.60
2023-05-14T07:54:03.996Z,0.70
2023-05-14T07:56:05.960Z,0.70
2023-05-14T07:58:07.580Z,0.70
2023-05-14T08:00:09.324Z,0.60
2023-05-14T08:02:12.729Z,0.70
2023-05-14T08:04:16.147Z,0.60
2023-05-14T08:06:17.626Z,0.60
2023-05-14T08:08:19.040Z,0.50
2023-05-14T08:10:20.638Z,0.47
2023-05-14T08:12:22.396Z,0.63
2023-05-14T08:14:23.844Z,0.68
2023-05-14T08:16:26.127Z,0.60
2023-05-14T08:18:27.732Z,0.73
2023-05-14T08:20:32.353Z,0.52
2023-05-14T08:22:34.011Z,0.60
2023-05-14T08:24:35.554Z,0.50
2023-05-14T08:26:38.729Z,0.70
2023-05-14T08:28:40.273Z,0.70
2023-05-14T08:30:41.689Z,0.73
2023-05-14T08:32:43.213Z,0.60
2023-05-14T08:34:44.761Z,0.70
2023-05-14T08:36:46.306Z,0.77
2023-05-14T08:38:48.484Z,0.73
2023-05-14T08:41:08.488Z,0.70
2023-05-14T08:43:10.944Z,0.60
2023-05-14T08:45:19.066Z,0.50
2023-05-14T08:47:21.836Z,0.80
2023-05-14T08:49:35.300Z,0.60
2023-05-14T08:51:36.902Z,0.60
2023-05-14T08:53:40.326Z,0.60
2023-05-14T08:55:42.500Z,0.65
2023-05-14T08:57:44.004Z,0.65
2023-05-14T08:59:45.513Z,0.80
2023-05-14T09:01:50.123Z,0.75
2023-05-14T09:03:52.579Z,0.55
2023-05-14T09:05:54.362Z,0.70
2023-05-14T09:07:55.968Z,0.70
2023-05-14T09:09:57.409Z,0.60
2023-05-14T09:11:58.961Z,0.65
2023-05-14T09:14:00.402Z,0.68
2023-05-14T09:16:02.278Z,0.60
2023-05-14T09:18:06.804Z,0.60
2023-05-14T09:20:09.494Z,0.70
2023-05-14T09:22:14.937Z,0.50
2023-05-14T09:24:34.712Z,0.70
2023-05-14T09:26:36.202Z,0.70
2023-05-14T09:28:41.886Z,0.60
2023-05-14T09:30:47.003Z,0.70
2023-05-14T09:32:50.173Z,0.80
2023-05-14T09:34:51.662Z,0.50
2023-05-14T09:36:56.743Z,0.50
2023-05-14T09:38:58.184Z,0.60
2023-05-14T09:41:00.747Z,0.65
2023-05-14T09:43:02.328Z,0.70
2023-05-14T09:45:05.034Z,0.80
2023-05-14T09:47:06.565Z,0.60
2023-05-14T09:49:08.040Z,0.60
2023-05-14T09:51:10.048Z,0.60
2023-05-14T09:53:11.796Z,0.70
2023-05-14T09:55:13.447Z,0.50
2023-05-14T09:57:14.869Z,0.52
2023-05-14T09:59:16.300Z,0.60
2023-05-14T10:01:19.195Z,0.57
2023-05-14T10:03:22.849Z,0.70
2023-05-14T10:05:24.854Z,0.50
2023-05-14T10:07:27.437Z,0.50
2023-05-14T10:09:29.723Z,0.68
2023-05-14T10:11:32.680Z,0.50
2023-05-14T10:13:46.517Z,0.63
2023-05-14T10:15:49.187Z,0.60
2023-05-14T10:17:55.637Z,0.55
2023-05-14T10:19:58.656Z,0.50
2023-05-14T10:22:04.470Z,0.60
2023-05-14T10:24:06.852Z,0.50
2023-05-14T10:26:08.718Z,0.70
2023-05-14T10:28:10.203Z,0.70
2023-05-14T10:30:13.015Z,0.65
2023-05-14T10:32:14.870Z,0.65
2023-05-14T10:34:37.630Z,0.60
2023-05-14T10:36:39.165Z,0.60
2023-05-14T10:38:40.681Z,0.70
2023-05-14T10:40:42.233Z,0.50
2023-05-14T10:42:43.915Z,0.60
2023-05-14T10:44:48.150Z,0.52
2023-05-14T10:46:49.625Z,0.60
2023-05-14T10:48:51.067Z,0.60
2023-05-14T10:50:53.040Z,0.77
2023-05-14T10:52:57.064Z,0.50
2023-05-14T10:55:02.664Z,0.50
2023-05-14T10:57:09.403Z,0.60
2023-05-14T10:59:11.428Z,0.65
2023-05-14T11:01:13.449Z,0.50
2023-05-14T11:03:16.194Z,0.50
2023-05-14T11:05:18.106Z,0.60
2023-05-14T11:07:23.516Z,0.50
2023-05-14T11:09:25.499Z,0.50
2023-05-14T11:11:26.984Z,0.60
2023-05-14T11:13:28.435Z,0.60
2023-05-14T11:15:29.912Z,0.60
2023-05-14T11:17:31.588Z,0.50
2023-05-14T11:19:33.044Z,0.70
2023-05-14T11:21:34.676Z,0.57
2023-05-14T11:23:36.121Z,0.70
2023-05-14T11:25:37.692Z,0.50
2023-05-14T11:27:39.531Z,0.70
2023-05-14T11:29:43.796Z,0.70
2023-05-14T11:31:45.253Z,0.60
2023-05-14T11:33:46.714Z,0.47
2023-05-14T11:35:48.454Z,0.68
2023-05-14T11:37:53.811Z,0.60
2023-05-14T11:39:55.658Z,0.60
2023-05-14T11:41:57.576Z,0.52
2023-05-14T11:43:59.046Z,0.57
2023-05-14T11:46:00.616Z,0.60
2023-05-14T11:48:02.183Z,0.50
2023-05-14T11:50:03.727Z,0.60
2023-05-14T11:52:06.130Z,0.70
2023-05-14T11:54:07.616Z,0.80
2023-05-14T11:56:09.997Z,0.75
2023-05-14T11:58:12.131Z,0.60
2023-05-14T12:00:14.504Z,0.70
2023-05-14T12:02:17.545Z,0.60
2023-05-14T12:04:22.918Z,0.70
2023-05-14T12:06:30.403Z,0.60
2023-05-14T12:08:32.577Z,0.68
2023-05-14T12:10:41.785Z,0.63
2023-05-14T12:12:45.444Z,0.55
2023-05-14T12:14:47.321Z,0.50
2023-05-14T12:16:49.059Z,0.65
2023-05-14T12:18:50.829Z,0.52
2023-05-14T12:20:52.345Z,0.60
2023-05-14T12:22:54.092Z,0.60
2023-05-14T12:24:58.841Z,0.60
2023-05-14T12:27:01.897Z,0.60
2023-05-14T12:29:03.744Z,0.50
2023-05-14T12:31:05.665Z,0.52
2023-05-14T12:33:08.435Z,0.63
2023-05-14T12:35:10.102Z,0.70
2023-05-14T12:37:11.685Z,0.50
2023-05-14T12:39:13.169Z,0.60
2023-05-14T12:41:14.592Z,0.63
2023-05-14T12:43:16.017Z,0.50
2023-05-14T12:45:17.670Z,0.57
2023-05-14T12:47:19.421Z,0.60
2023-05-14T12:49:21.149Z,0.50
2023-05-14T12:51:22.857Z,0.50
2023-05-14T12:53:24.469Z,0.55
2023-05-14T12:55:25.966Z,0.50
2023-05-14T12:57:28.267Z,0.55
2023-05-14T12:59:29.723Z,0.60
2023-05-14T13:01:31.212Z,0.50
2023-05-14T13:03:32.791Z,0.50
2023-05-14T13:05:34.226Z,0.50
2023-05-14T13:07:36.189Z,0.50
2023-05-14T13:09:37.601Z,0.60
2023-05-14T13:11:39.066Z,0.50
2023-05-14T13:13:41.037Z,0.55
2023-05-14T13:15:42.624Z,0.43
2023-05-14T13:17:44.281Z,0.50
2023-05-14T13:19:45.844Z,0.55
2023-05-14T13:21:47.298Z,0.60
2023-05-14T13:23:48.988Z,0.50
2023-05-14T13:25:50.744Z,0.50
2023-05-14T13:27:52.272Z,0.50
2023-05-14T13:29:53.739Z,0.50
2023-05-14T13:31:55.329Z,0.45
2023-05-14T13:33:58.121Z,0.50
2023-05-14T13:35:59.571Z,0.60
2023-05-14T13:38:01.061Z,0.50
2023-05-14T13:40:04.371Z,0.40
2023-05-14T13:42:06.140Z,0.50
2023-05-14T13:44:07.963Z,0.60
2023-05-14T13:46:09.663Z,0.50
2023-05-14T13:48:11.553Z,0.50
2023-05-14T13:50:13.872Z,0.50
2023-05-14T13:52:15.613Z,0.70
2023-05-14T13:54:16.993Z,0.60
2023-05-14T13:56:18.652Z,0.50
2023-05-14T13:58:20.113Z,0.70
2023-05-14T14:00:21.886Z,0.50
2023-05-14T14:02:23.364Z,0.50
2023-05-14T14:04:28.970Z,0.60
2023-05-14T14:06:31.300Z,0.50
2023-05-14T14:08:32.729Z,0.50
2023-05-14T14:10:34.219Z,0.40
2023-05-14T14:12:35.719Z,0.60
2023-05-14T14:14:37.171Z,0.50
2023-05-14T14:16:38.738Z,0.50
2023-05-14T14:18:40.332Z,0.50
2023-05-14T14:20:41.813Z,0.47
2023-05-14T14:22:43.435Z,0.50
2023-05-14T14:24:44.859Z,0.50
2023-05-14T14:26:46.366Z,0.50
2023-05-14T14:28:48.013Z,0.50
2023-05-14T14:30:50.139Z,0.40
2023-05-14T14:32:51.618Z,0.50
2023-05-14T14:34:53.258Z,0.50
2023-05-14T14:36:54.732Z,0.50
2023-05-14T14:38:56.124Z,0.50
2023-05-14T14:40:57.902Z,0.52
2023-05-14T14:42:59.392Z,0.55
2023-05-14T14:45:00.965Z,0.60
2023-05-14T14:47:02.359Z,0.50
2023-05-14T14:49:03.806Z,0.50
2023-05-14T14:51:06.513Z,0.50
2023-05-14T14:53:10.494Z,0.50
2023-05-14T14:55:11.873Z,0.50
2023-05-14T14:57:13.249Z,0.63
2023-05-14T14:59:14.684Z,0.50
2023-05-14T15:01:16.976Z,0.50
2023-05-14T15:03:19.228Z,0.60
2023-05-14T15:05:21.417Z,0.40
2023-05-14T15:07:23.072Z,0.52
2023-05-14T15:09:24.520Z,0.65
2023-05-14T15:11:26.180Z,0.43
2023-05-14T15:13:28.261Z,0.43
2023-05-14T15:15:41.684Z,0.40
2023-05-14T15:17:43.133Z,0.43
2023-05-14T15:19:44.654Z,0.45
2023-05-14T15:21:46.106Z,0.60
2023-05-14T15:23:47.533Z,0.55
2023-05-14T15:25:49.950Z,0.50
2023-05-14T15:27:51.379Z,0.55
2023-05-14T15:29:52.880Z,0.47
2023-05-14T15:31:54.444Z,0.60
2023-05-14T15:33:56.175Z,0.52
2023-05-14T15:35:57.709Z,0.40
2023-05-14T15:37:59.105Z,0.60
2023-05-14T15:40:01.045Z,0.50
2023-05-14T15:42:02.635Z,0.50
2023-05-14T15:44:04.309Z,0.40
2023-05-14T15:46:05.783Z,0.40
2023-05-14T15:48:07.267Z,0.50
2023-05-14T15:50:09.085Z,0.45
2023-05-14T15:52:10.736Z,0.43
2023-05-14T15:54:12.304Z,0.50
2023-05-14T15:56:13.889Z,0.50
2023-05-14T15:58:15.317Z,0.40
2023-05-14T16:00:17.529Z,0.43
2023-05-14T16:02:19.060Z,0.40
2023-05-14T16:04:20.764Z,0.47
2023-05-14T16:06:22.326Z,0.50
2023-05-14T16:08:23.800Z,0.40
2023-05-14T16:10:25.577Z,0.40
2023-05-14T16:12:27.301Z,0.40
2023-05-14T16:14:28.814Z,0.50
2023-05-14T16:16:30.584Z,0.47
2023-05-14T16:18:32.564Z,0.40
2023-05-14T16:20:34.016Z,0.40
2023-05-14T16:22:36.423Z,0.50
2023-05-14T16:24:37.851Z,0.40
2023-05-14T16:26:39.675Z,0.40
2023-05-14T16:28:42.774Z,0.40
2023-05-14T16:30:44.187Z,0.40
2023-05-14T16:32:49.287Z,0.40
2023-05-14T16:34:51.073Z,0.40
2023-05-14T16:36:52.993Z,0.40
2023-05-14T16:39:06.762Z,0.25
2023-05-14T16:41:12.312Z,0.40
2023-05-14T16:43:13.698Z,0.40
2023-05-14T16:45:15.452Z,0.35
2023-05-14T16:47:16.954Z,0.40
2023-05-14T16:49:22.212Z,0.50
2023-05-14T16:51:23.642Z,0.40
2023-05-14T16:53:25.202Z,0.38
2023-05-14T16:55:26.726Z,0.40
2023-05-14T16:57:28.544Z,0.30
2023-05-14T16:59:30.063Z,0.35
2023-05-14T17:01:31.558Z,0.30
2023-05-14T17:03:33.003Z,0.30
2023-05-14T17:05:34.636Z,0.47
2023-05-14T17:07:36.937Z,0.20
2023-05-14T17:09:38.495Z,0.38
2023-05-14T17:11:39.868Z,0.40
2023-05-14T17:13:41.235Z,0.40
2023-05-14T17:15:42.840Z,0.30
2023-05-14T17:17:44.583Z,0.40
2023-05-14T17:19:47.665Z,0.32
2023-05-14T17:21:49.151Z,0.40
2023-05-14T17:23:50.636Z,0.30
2023-05-14T17:25:52.192Z,0.40
2023-05-14T17:27:53.682Z,0.30
2023-05-14T17:29:55.094Z,0.32
2023-05-14T17:31:56.597Z,0.43
2023-05-14T17:33:58.727Z,0.30
2023-05-14T17:36:00.358Z,0.30
2023-05-14T17:38:02.731Z,0.30
2023-05-14T17:40:04.455Z,0.30
2023-05-14T17:42:06.622Z,0.35
2023-05-14T17:44:08.497Z,0.30
2023-05-14T17:46:10.077Z,0.40
2023-05-14T17:48:11.691Z,0.22
2023-05-14T17:50:13.223Z,0.30
2023-05-14T17:52:14.632Z,0.40
2023-05-14T17:54:16.052Z,0.43
2023-05-14T17:56:18.524Z,0.40
2023-05-14T17:58:20.066Z,0.30
2023-05-14T18:00:21.514Z,0.40
2023-05-14T18:02:22.907Z,0.40
2023-05-14T18:04:24.488Z,0.32
2023-05-14T18:06:26.054Z,0.30
2023-05-14T18:08:27.504Z,0.30
2023-05-14T18:10:29.658Z,0.30
2023-05-14T18:12:31.110Z,0.30
2023-05-14T18:14:32.488Z,0.30
2023-05-14T18:16:34.234Z,0.30
2023-05-14T18:18:35.975Z,0.30
2023-05-14T18:20:37.511Z,0.32
2023-05-14T18:22:38.920Z,0.40
2023-05-14T18:24:40.333Z,0.30
2023-05-14T18:26:41.851Z,0.40
2023-05-14T18:28:43.573Z,0.32
2023-05-14T18:30:45.489Z,0.40
2023-05-14T18:32:47.085Z,0.30
2023-05-14T18:34:48.603Z,0.50
2023-05-14T18:36:50.897Z,0.30
2023-05-14T18:38:52.362Z,0.30
2023-05-14T18:40:53.827Z,0.40
2023-05-14T18:42:56.633Z,0.30
2023-05-14T18:44:58.108Z,0.40
2023-05-14T18:46:59.657Z,0.32
2023-05-14T18:49:01.088Z,0.30
2023-05-14T18:51:02.652Z,0.40
2023-05-14T18:53:04.067Z,0.30
2023-05-14T18:55:05.952Z,0.30
2023-05-14T18:57:07.930Z,0.30
2023-05-14T18:59:09.676Z,0.40
2023-05-14T19:01:11.125Z,0.30
2023-05-14T19:03:12.825Z,0.40
2023-05-14T19:05:14.324Z,0.40
2023-05-14T19:07:15.695Z,0.40
2023-05-14T19:09:20.981Z,0.32
2023-05-14T19:11:22.640Z,0.40
2023-05-14T19:13:24.206Z,0.38
2023-05-14T19:15:26.308Z,0.35
2023-05-14T19:17:28.977Z,0.38
2023-05-14T19:19:30.700Z,0.40
2023-05-14T19:21:32.216Z,0.45
2023-05-14T19:23:33.627Z,0.30
2023-05-14T19:25:35.129Z,0.35
2023-05-14T19:27:37.202Z,0.30
2023-05-14T19:29:38.670Z,0.40
2023-05-14T19:31:40.236Z,0.30
2023-05-14T19:33:41.824Z,0.30
2023-05-14T19:35:43.443Z,0.30
2023-05-14T19:37:45.875Z,0.40
2023-05-14T19:39:47.283Z,0.30
2023-05-14T19:41:48.850Z,0.32
2023-05-14T19:43:50.407Z,0.30
2023-05-14T19:45:52.569Z,0.40
2023-05-14T19:47:54.185Z,0.30
2023-05-14T19:49:55.656Z,0.40
2023-05-14T19:51:57.204Z,0.30
2023-05-14T19:53:58.620Z,0.30
2023-05-14T19:56:00.137Z,0.40
2023-05-14T19:58:01.629Z,0.30
2023-05-14T20:00:04.173Z,0.43
2023-05-14T20:02:05.938Z,0.40
2023-05-14T20:04:07.414Z,0.40
2023-05-14T20:06:08.857Z,0.40
2023-05-14T20:08:11.514Z,0.40
2023-05-14T20:10:14.098Z,0.30
2023-05-14T20:12:16.709Z,0.35
2023-05-14T20:14:18.120Z,0.40
2023-05-14T20:16:19.653Z,0.30
2023-05-14T20:18:21.146Z,0.30
2023-05-14T20:20:22.529Z,0.30
2023-05-14T20:22:23.987Z,0.40
2023-05-14T20:24:25.581Z,0.40
2023-05-14T20:26:27.034Z,0.30
2023-05-14T20:28:28.559Z,0.30
2023-05-14T20:30:30.080Z,0.30
2023-05-14T20:32:31.729Z,0.25
2023-05-14T20:34:33.329Z,0.38
2023-05-14T20:36:35.798Z,0.20
2023-05-14T20:38:37.229Z,0.32
2023-05-14T20:40:38.915Z,0.32
2023-05-14T20:42:40.507Z,0.35
2023-05-14T20:44:41.886Z,0.30
2023-05-14T20:46:43.507Z,0.35
2023-05-14T20:48:46.918Z,0.30
2023-05-14T20:50:48.465Z,0.30
2023-05-14T20:52:49.967Z,0.30
2023-05-14T20:54:51.447Z,0.30
2023-05-14T20:56:52.885Z,0.32
2023-05-14T20:58:54.389Z,0.40
2023-05-14T21:00:55.991Z,0.30
2023-05-14T21:02:59.590Z,0.22
2023-05-14T21:05:01.511Z,0.30
2023-05-14T21:07:03.794Z,0.30
2023-05-14T21:09:05.207Z,0.30
2023-05-14T21:11:06.658Z,0.32
2023-05-14T21:13:08.285Z,0.30
2023-05-14T21:15:10.236Z,0.30
2023-05-14T21:17:11.773Z,0.30
2023-05-14T21:19:14.783Z,0.40
2023-05-14T21:21:16.944Z,0.30
2023-05-14T21:23:19.870Z,0.38
2023-05-14T21:25:21.373Z,0.30
2023-05-14T21:27:22.956Z,0.40
2023-05-14T21:29:24.465Z,0.40
2023-05-14T21:31:26.023Z,0.40
2023-05-14T21:33:27.487Z,0.40
2023-05-14T21:35:29.055Z,0.40
2023-05-14T21:37:30.441Z,0.40
2023-05-14T21:39:32.041Z,0.38
2023-05-14T21:41:33.492Z,0.30
2023-05-14T21:43:35.013Z,0.35
2023-05-14T21:45:36.533Z,0.30
2023-05-14T21:47:38.271Z,0.40
2023-05-14T21:49:39.876Z,0.30
2023-05-14T21:51:41.304Z,0.40
2023-05-14T21:53:42.786Z,0.30
2023-05-14T21:55:44.261Z,0.30
2023-05-14T21:57:45.819Z,0.50
2023-05-14T21:59:47.288Z,0.30
2023-05-14T22:03:53.901Z,0.35
2023-05-14T22:05:56.922Z,0.40
2023-05-14T22:07:58.381Z,0.40
2023-05-14T22:09:59.789Z,0.30
2023-05-14T22:12:01.218Z,0.30
2023-05-14T22:14:02.634Z,0.38
2023-05-14T22:16:12.206Z,0.30
2023-05-14T22:18:15.603Z,0.40
2023-05-14T22:20:17.096Z,0.40
2023-05-14T22:22:18.628Z,0.30
2023-05-14T22:24:20.068Z,0.40
2023-05-14T22:26:21.887Z,0.30
2023-05-14T22:28:23.397Z,0.30
2023-05-14T22:30:24.956Z,0.30
2023-05-14T22:32:26.642Z,0.40
2023-05-14T22:34:28.142Z,0.28
2023-05-14T22:36:29.595Z,0.30
2023-05-14T22:38:31.002Z,0.30
2023-05-14T22:40:32.372Z,0.30
2023-05-14T22:42:33.783Z,0.35
2023-05-14T22:44:38.188Z,0.40
2023-05-14T22:46:39.697Z,0.28
2023-05-14T22:48:41.259Z,0.30
2023-05-14T22:50:42.664Z,0.40
2023-05-14T22:52:44.089Z,0.30
2023-05-14T22:54:46.614Z,0.30
2023-05-14T22:56:48.126Z,0.40
2023-05-14T22:58:49.691Z,0.40
2023-05-14T23:00:51.363Z,0.30
2023-05-14T23:02:52.819Z,0.30
2023-05-14T23:04:54.363Z,0.40
2023-05-14T23:06:55.854Z,0.40
2023-05-14T23:08:57.348Z,0.40
2023-05-14T23:10:58.819Z,0.40
2023-05-14T23:13:00.222Z,0.40
2023-05-14T23:15:01.887Z,0.40
2023-05-14T23:17:03.406Z,0.32
2023-05-14T23:19:05.117Z,0.30
2023-05-14T23:21:06.862Z,0.30
2023-05-14T23:23:08.534Z,0.30
2023-05-14T23:25:10.048Z,0.30
2023-05-14T23:27:11.839Z,0.40
2023-05-14T23:29:13.284Z,0.30
2023-05-14T23:31:14.713Z,0.30
2023-05-14T23:33:16.360Z,0.40
2023-05-14T23:35:17.784Z,0.35
2023-05-14T23:37:19.306Z,0.40
2023-05-14T23:39:21.418Z,0.40
2023-05-14T23:41:22.791Z,0.30
2023-05-14T23:43:24.188Z,0.38
2023-05-14T23:45:26.567Z,0.30
2023-05-14T23:47:28.155Z,0.40
2023-05-14T23:49:29.757Z,0.40
2023-05-14T23:51:31.156Z,0.30
2023-05-14T23:53:32.654Z,0.40
2023-05-14T23:55:34.056Z,0.30
2023-05-14T23:57:35.503Z,0.32
2023-05-14T23:59:38.187Z,0.40
